createdAt,value
2023-04-21T00:00:10.498Z,69.78
2023-04-21T00:02:40.102Z,69.38
2023-04-21T00:05:12.958Z,69.66
2023-04-21T00:07:41.848Z,69.37
2023-04-21T00:10:10.038Z,68.97
2023-04-21T00:12:37.406Z,69.47
2023-04-21T00:15:07.862Z,69.44
2023-04-21T00:17:34.942Z,68.89
2023-04-21T00:20:02.038Z,68.00
2023-04-21T00:22:29.134Z,68.11
2023-04-21T00:24:56.094Z,68.47
2023-04-21T00:27:23.026Z,68.90
2023-04-21T00:29:50.202Z,68.60
2023-04-21T00:32:17.611Z,69.07
2023-04-21T00:34:44.708Z,69.37
2023-04-21T00:37:12.385Z,69.35
2023-04-21T00:39:39.858Z,70.11
2023-04-21T00:42:16.211Z,70.61
2023-04-21T00:44:43.504Z,70.69
2023-04-21T00:47:10.777Z,71.15
2023-04-21T00:49:38.185Z,70.94
2023-04-21T00:52:06.623Z,71.62
2023-04-21T00:54:35.878Z,72.01
2023-04-21T00:57:03.885Z,72.24
2023-04-21T00:59:31.196Z,72.47
2023-04-21T01:01:58.319Z,72.61
2023-04-21T01:04:25.780Z,72.93
2023-04-21T01:06:53.064Z,73.59
2023-04-21T01:09:21.287Z,74.44
2023-04-21T01:12:12.208Z,74.67
2023-04-21T01:14:40.917Z,74.80
2023-04-21T01:17:08.875Z,75.12
2023-04-21T01:19:40.595Z,75.52
2023-04-21T01:22:12.799Z,75.59
2023-04-21T01:24:46.101Z,75.22
2023-04-21T01:27:16.757Z,75.39
2023-04-21T01:29:48.445Z,75.64
2023-04-21T01:32:19.261Z,75.65
2023-04-21T01:34:47.871Z,76.36
2023-04-21T01:37:17.658Z,76.30
2023-04-21T01:39:52.486Z,76.31
2023-04-21T01:42:22.530Z,76.68
2023-04-21T01:44:49.881Z,76.68
2023-04-21T01:47:18.679Z,77.11
2023-04-21T01:49:46.131Z,77.25
2023-04-21T01:52:13.280Z,77.44
2023-04-21T01:54:40.479Z,77.50
2023-04-21T01:57:07.814Z,77.16
2023-04-21T01:59:35.388Z,76.86
2023-04-21T02:02:03.306Z,76.52
2023-04-21T02:04:33.478Z,75.64
2023-04-21T02:07:00.918Z,74.62
2023-04-21T02:09:27.992Z,74.46
2023-04-21T02:11:58.259Z,74.03
2023-04-21T02:14:26.201Z,73.76
2023-04-21T02:16:53.573Z,74.04
2023-04-21T02:19:22.404Z,73.92
2023-04-21T02:21:49.481Z,73.16
2023-04-21T02:24:16.610Z,73.35
2023-04-21T02:26:43.739Z,73.41
2023-04-21T02:29:10.854Z,73.32
2023-04-21T02:31:53.837Z,73.14
2023-04-21T02:34:26.040Z,74.13
2023-04-21T02:36:53.178Z,75.37
2023-04-21T02:39:20.486Z,75.64
2023-04-21T02:41:47.757Z,75.37
2023-04-21T02:44:14.919Z,75.14
2023-04-21T02:46:42.278Z,75.25
2023-04-21T02:49:10.809Z,75.15
2023-04-21T02:51:38.020Z,74.17
2023-04-21T02:54:05.226Z,73.40
2023-04-21T02:56:34.717Z,73.22
2023-04-21T02:59:01.927Z,72.91
2023-04-21T03:01:28.977Z,72.33
2023-04-21T03:03:56.178Z,71.94
2023-04-21T03:06:23.195Z,71.64
2023-04-21T03:08:50.347Z,71.53
2023-04-21T03:11:17.366Z,71.41
2023-04-21T03:13:45.775Z,71.26
2023-04-21T03:16:13.634Z,71.25
2023-04-21T03:18:40.753Z,71.66
2023-04-21T03:21:07.831Z,71.56
2023-04-21T03:23:35.709Z,71.76
2023-04-21T03:26:07.653Z,71.42
2023-04-21T03:28:35.201Z,71.44
2023-04-21T03:31:03.185Z,71.74
2023-04-21T03:33:30.401Z,72.34
2023-04-21T03:35:57.484Z,72.67
2023-04-21T03:38:24.569Z,74.25
2023-04-21T03:40:51.633Z,74.36
2023-04-21T03:43:19.231Z,73.71
2023-04-21T03:45:46.562Z,73.00
2023-04-21T03:48:13.610Z,72.71
2023-04-21T03:50:40.777Z,72.59
2023-04-21T03:53:07.876Z,72.65
2023-04-21T03:55:37.871Z,72.93
2023-04-21T03:58:04.953Z,73.16
2023-04-21T04:00:32.008Z,73.19
2023-04-21T04:02:59.050Z,73.44
2023-04-21T04:05:26.464Z,73.30
2023-04-21T04:07:53.578Z,73.70
2023-04-21T04:10:21.242Z,74.06
2023-04-21T04:12:48.436Z,74.44
2023-04-21T04:15:15.812Z,75.21
2023-04-21T04:17:43.263Z,75.52
2023-04-21T04:20:10.484Z,76.35
2023-04-21T04:22:37.677Z,76.24
2023-04-21T04:25:05.629Z,77.04
2023-04-21T04:27:33.448Z,76.32
2023-04-21T04:30:00.590Z,77.56
2023-04-21T04:32:30.412Z,77.37
2023-04-21T04:34:57.514Z,77.28
2023-04-21T04:37:25.562Z,77.59
2023-04-21T04:39:55.449Z,78.22
2023-04-21T04:42:22.637Z,79.39
2023-04-21T04:44:53.194Z,79.67
2023-04-21T04:47:20.326Z,79.80
2023-04-21T04:49:47.397Z,80.17
2023-04-21T04:52:14.408Z,81.19
2023-04-21T04:54:41.345Z,82.45
2023-04-21T04:57:08.296Z,85.08
2023-04-21T04:59:36.786Z,85.50
2023-04-21T05:02:04.369Z,87.26
2023-04-21T05:04:32.153Z,90.33
2023-04-21T05:06:59.278Z,89.10
2023-04-21T05:09:26.320Z,88.00
2023-04-21T05:11:53.335Z,89.59
2023-04-21T05:14:20.686Z,91.45
2023-04-21T05:16:47.992Z,90.86
2023-04-21T05:19:17.376Z,89.46
2023-04-21T05:21:45.638Z,89.73
2023-04-21T05:24:12.742Z,91.26
2023-04-21T05:26:39.792Z,91.30
2023-04-21T05:29:07.166Z,91.18
2023-04-21T05:31:35.022Z,90.35
2023-04-21T05:34:02.260Z,88.96
2023-04-21T05:36:30.673Z,90.28
2023-04-21T05:38:57.632Z,89.34
2023-04-21T05:41:24.787Z,87.97
2023-04-21T05:43:52.144Z,86.39
2023-04-21T05:46:19.377Z,86.82
2023-04-21T05:48:46.480Z,87.67
2023-04-21T05:51:15.710Z,87.73
2023-04-21T05:53:44.069Z,87.15
2023-04-21T05:56:12.069Z,87.54
2023-04-21T05:58:39.407Z,87.69
2023-04-21T06:01:09.491Z,86.62
2023-04-21T06:03:37.381Z,85.51
2023-04-21T06:06:07.294Z,84.38
2023-04-21T06:08:34.471Z,83.44
2023-04-21T06:11:01.675Z,82.96
2023-04-21T06:13:29.002Z,83.19
2023-04-21T06:15:56.254Z,82.82
2023-04-21T06:18:24.331Z,82.73
2023-04-21T06:20:52.808Z,81.84
2023-04-21T06:23:20.304Z,81.24
2023-04-21T06:25:47.719Z,81.47
2023-04-21T06:28:14.886Z,81.43
2023-04-21T06:30:42.005Z,80.52
2023-04-21T06:33:09.569Z,81.01
2023-04-21T06:35:36.764Z,78.88
2023-04-21T06:38:03.975Z,77.79
2023-04-21T06:40:30.964Z,76.53
2023-04-21T06:42:58.030Z,76.09
2023-04-21T06:45:25.279Z,73.47
2023-04-21T06:47:52.368Z,75.56
2023-04-21T06:50:19.449Z,73.18
2023-04-21T06:52:46.446Z,73.01
2023-04-21T06:55:13.596Z,73.58
2023-04-21T06:57:40.735Z,68.06
2023-04-21T07:00:08.683Z,72.14
2023-04-21T07:02:36.054Z,73.00
2023-04-21T07:05:03.348Z,71.88
2023-04-21T07:07:30.335Z,67.18
2023-04-21T07:09:57.379Z,72.51
2023-04-21T07:12:24.904Z,71.15
2023-04-21T07:14:52.057Z,70.72
2023-04-21T07:17:19.079Z,73.20
2023-04-21T07:19:46.539Z,73.00
2023-04-21T07:22:13.581Z,71.80
2023-04-21T07:24:40.680Z,71.76
2023-04-21T07:27:07.902Z,70.69
2023-04-21T07:29:34.955Z,70.66
2023-04-21T07:32:02.092Z,67.11
2023-04-21T07:34:29.161Z,67.77
2023-04-21T07:36:56.720Z,65.78
2023-04-21T07:39:23.768Z,69.58
2023-04-21T07:41:50.709Z,70.11
2023-04-21T07:44:17.724Z,65.84
2023-04-21T07:46:44.805Z,69.96
2023-04-21T07:49:11.976Z,68.85
2023-04-21T07:51:40.048Z,68.76
2023-04-21T07:54:07.128Z,66.52
2023-04-21T07:56:34.150Z,61.01
2023-04-21T07:59:01.319Z,59.96
2023-04-21T08:01:28.366Z,61.65
2023-04-21T08:03:55.533Z,56.85
2023-04-21T08:06:22.954Z,56.32
2023-04-21T08:08:50.557Z,53.46
2023-04-21T08:11:17.713Z,55.04
2023-04-21T08:13:44.755Z,54.21
2023-04-21T08:16:11.937Z,55.13
2023-04-21T08:18:39.137Z,55.21
2023-04-21T08:21:06.496Z,55.63
2023-04-21T08:23:33.728Z,57.23
2023-04-21T08:26:02.316Z,55.69
2023-04-21T08:28:29.381Z,55.92
2023-04-21T08:30:56.513Z,57.16
2023-04-21T08:33:23.631Z,56.42
2023-04-21T08:36:02.335Z,57.37
2023-04-21T08:38:32.879Z,57.29
2023-04-21T08:41:00.261Z,56.56
2023-04-21T08:43:29.286Z,57.72
2023-04-21T08:45:56.873Z,57.97
2023-04-21T08:48:25.721Z,59.20
2023-04-21T08:50:54.004Z,58.73
2023-04-21T08:53:21.925Z,57.62
2023-04-21T08:56:07.495Z,52.64
2023-04-21T08:58:41.072Z,52.86
2023-04-21T09:01:08.276Z,55.73
2023-04-21T09:03:35.673Z,56.33
2023-04-21T09:06:10.860Z,48.88
2023-04-21T09:08:43.304Z,50.41
2023-04-21T09:11:14.817Z,51.21
2023-04-21T09:13:43.347Z,49.88
2023-04-21T09:16:21.994Z,50.18
2023-04-21T09:18:50.480Z,49.77
2023-04-21T09:21:19.295Z,52.04
2023-04-21T09:23:50.483Z,52.77
2023-04-21T09:26:19.085Z,49.73
2023-04-21T09:28:48.175Z,53.87
2023-04-21T09:31:17.293Z,54.18
2023-04-21T09:33:58.678Z,50.99
2023-04-21T09:36:28.737Z,54.52
2023-04-21T09:41:33.113Z,53.46
2023-04-21T09:44:05.107Z,51.94
2023-04-21T09:46:37.004Z,54.11
2023-04-21T09:49:05.473Z,59.00
2023-04-21T09:51:49.161Z,55.23
2023-04-21T09:56:58.281Z,50.49
2023-04-21T09:59:41.077Z,48.99
2023-04-21T10:02:09.950Z,44.23
2023-04-21T10:04:38.908Z,48.60
2023-04-21T10:07:06.881Z,54.85
2023-04-21T10:09:40.712Z,57.22
2023-04-21T10:12:09.671Z,54.56
2023-04-21T10:14:37.117Z,53.75
2023-04-21T10:17:09.355Z,57.98
2023-04-21T10:19:40.590Z,60.22
2023-04-21T10:22:10.121Z,53.76
2023-04-21T10:24:41.694Z,55.69
2023-04-21T10:27:12.910Z,48.31
2023-04-21T10:29:55.728Z,53.54
2023-04-21T10:33:03.535Z,52.88
2023-04-21T10:36:04.947Z,51.01
2023-04-21T10:38:44.623Z,47.48
2023-04-21T10:41:28.971Z,45.78
2023-04-21T10:44:19.997Z,44.02
2023-04-21T10:46:52.400Z,53.96
2023-04-21T10:49:23.662Z,52.22
2023-04-21T10:51:59.726Z,49.91
2023-04-21T10:54:28.562Z,45.14
2023-04-21T10:56:57.160Z,44.25
2023-04-21T10:59:25.786Z,44.37
2023-04-21T11:01:53.013Z,44.27
2023-04-21T11:04:22.849Z,40.50
2023-04-21T11:07:16.655Z,39.68
2023-04-21T11:09:45.133Z,44.71
2023-04-21T11:12:14.360Z,45.25
2023-04-21T11:14:43.573Z,46.93
2023-04-21T11:17:19.250Z,46.11
2023-04-21T11:19:47.787Z,47.90
2023-04-21T11:22:17.190Z,43.82
2023-04-21T11:24:49.506Z,51.01
2023-04-21T11:27:18.006Z,47.55
2023-04-21T11:29:46.589Z,44.01
2023-04-21T11:32:14.309Z,46.94
2023-04-21T11:34:41.881Z,44.32
2023-04-21T11:37:10.825Z,43.00
2023-04-21T11:39:41.585Z,47.23
2023-04-21T11:42:08.705Z,47.35
2023-04-21T11:44:44.611Z,45.20
2023-04-21T11:47:28.291Z,45.26
2023-04-21T11:49:57.702Z,45.89
2023-04-21T11:52:24.845Z,42.62
2023-04-21T11:54:59.408Z,44.57
2023-04-21T11:57:28.282Z,47.29
2023-04-21T11:59:58.518Z,48.95
2023-04-21T12:02:28.280Z,42.91
2023-04-21T12:05:14.625Z,38.44
2023-04-21T12:07:44.844Z,43.97
2023-04-21T12:10:17.760Z,44.62
2023-04-21T12:12:47.528Z,46.49
2023-04-21T12:15:23.418Z,43.82
2023-04-21T12:17:55.532Z,41.83
2023-04-21T12:20:24.587Z,40.08
2023-04-21T12:22:54.445Z,40.16
2023-04-21T12:25:21.362Z,36.98
2023-04-21T12:27:52.578Z,40.01
2023-04-21T12:30:20.972Z,39.08
2023-04-21T12:32:48.767Z,40.46
2023-04-21T12:35:17.309Z,41.31
2023-04-21T12:37:45.273Z,42.97
2023-04-21T12:40:12.427Z,41.24
2023-04-21T12:42:39.559Z,37.55
2023-04-21T12:45:07.284Z,40.04
2023-04-21T12:47:35.418Z,41.22
2023-04-21T12:50:27.859Z,38.84
2023-04-21T12:52:55.466Z,38.83
2023-04-21T12:55:23.405Z,40.80
2023-04-21T12:57:51.081Z,42.56
2023-04-21T13:00:18.116Z,39.28
2023-04-21T13:02:45.368Z,43.46
2023-04-21T13:05:13.479Z,39.92
2023-04-21T13:07:41.590Z,45.14
2023-04-21T13:10:09.084Z,41.36
2023-04-21T13:12:36.269Z,43.72
2023-04-21T13:15:04.160Z,44.56
2023-04-21T13:17:32.894Z,43.51
2023-04-21T13:20:00.298Z,44.14
2023-04-21T13:22:27.357Z,39.43
2023-04-21T13:24:57.026Z,39.94
2023-04-21T13:30:18.039Z,41.32
2023-04-21T13:32:45.280Z,39.70
2023-04-21T13:35:12.611Z,41.49
2023-04-21T13:37:40.566Z,40.45
2023-04-21T13:40:10.299Z,42.37
2023-04-21T13:42:38.022Z,40.50
2023-04-21T13:45:05.928Z,38.46
2023-04-21T13:47:34.049Z,39.07
2023-04-21T13:50:01.456Z,41.70
2023-04-21T13:52:28.604Z,41.88
2023-04-21T13:54:55.802Z,41.10
2023-04-21T13:57:31.861Z,41.45
2023-04-21T13:59:59.055Z,43.26
2023-04-21T14:02:26.429Z,45.26
2023-04-21T14:04:54.627Z,46.05
2023-04-21T14:07:24.000Z,44.92
2023-04-21T14:09:52.831Z,40.06
2023-04-21T14:12:19.897Z,38.02
2023-04-21T14:14:47.495Z,37.70
2023-04-21T14:17:16.846Z,39.42
2023-04-21T14:19:43.991Z,38.02
2023-04-21T14:22:11.044Z,41.47
2023-04-21T14:24:37.967Z,38.72
2023-04-21T14:27:04.959Z,40.28
2023-04-21T14:29:32.435Z,44.04
2023-04-21T14:31:59.636Z,46.22
2023-04-21T14:34:26.725Z,44.56
2023-04-21T14:36:53.840Z,43.80
2023-04-21T14:39:20.945Z,43.96
2023-04-21T14:41:48.408Z,42.20
2023-04-21T14:44:16.349Z,41.86
2023-04-21T14:46:48.092Z,42.88
2023-04-21T14:49:21.581Z,44.37
2023-04-21T14:51:49.952Z,42.55
2023-04-21T14:54:17.069Z,44.44
2023-04-21T14:56:44.092Z,44.68
2023-04-21T14:59:11.261Z,44.28
2023-04-21T15:01:38.404Z,44.93
2023-04-21T15:04:06.626Z,45.39
2023-04-21T15:06:33.923Z,44.88
2023-04-21T15:09:01.018Z,44.80
2023-04-21T15:11:28.106Z,44.29
2023-04-21T15:13:55.133Z,44.70
2023-04-21T15:16:22.187Z,47.29
2023-04-21T15:18:49.284Z,46.67
2023-04-21T15:21:16.357Z,47.04
2023-04-21T15:23:43.435Z,46.75
2023-04-21T15:26:10.981Z,46.87
2023-04-21T15:28:39.730Z,45.03
2023-04-21T15:31:09.839Z,44.69
2023-04-21T15:33:37.070Z,47.16
2023-04-21T15:36:04.112Z,47.51
2023-04-21T15:38:31.100Z,47.21
2023-04-21T15:41:01.749Z,47.98
2023-04-21T15:43:29.470Z,49.96
2023-04-21T15:45:56.428Z,48.66
2023-04-21T15:48:23.653Z,48.54
2023-04-21T15:50:50.819Z,46.05
2023-04-21T15:53:19.800Z,48.88
2023-04-21T15:55:47.146Z,47.31
2023-04-21T15:58:14.341Z,48.45
2023-04-21T16:00:46.117Z,49.41
2023-04-21T16:03:13.630Z,49.00
2023-04-21T16:05:41.293Z,50.02
2023-04-21T16:08:08.636Z,50.35
2023-04-21T16:10:35.811Z,51.56
2023-04-21T16:13:02.773Z,51.59
2023-04-21T16:15:30.109Z,51.02
2023-04-21T16:17:57.515Z,48.09
2023-04-21T16:20:25.029Z,47.78
2023-04-21T16:22:52.202Z,47.33
2023-04-21T16:25:20.287Z,46.23
2023-04-21T16:27:47.748Z,44.99
2023-04-21T16:30:14.889Z,47.17
2023-04-21T16:32:41.876Z,49.92
2023-04-21T16:35:09.406Z,47.80
2023-04-21T16:37:38.339Z,50.46
2023-04-21T16:40:06.524Z,51.39
2023-04-21T16:42:34.160Z,52.35
2023-04-21T16:45:03.606Z,53.43
2023-04-21T16:47:32.790Z,52.23
2023-04-21T16:50:00.106Z,50.93
2023-04-21T16:52:27.548Z,51.33
2023-04-21T16:54:54.708Z,51.64
2023-04-21T16:57:24.704Z,51.74
2023-04-21T16:59:52.306Z,51.33
2023-04-21T17:02:19.854Z,52.35
2023-04-21T17:04:47.252Z,52.23
2023-04-21T17:07:14.827Z,52.54
2023-04-21T17:09:42.109Z,54.56
2023-04-21T17:12:09.662Z,54.16
2023-04-21T17:14:37.001Z,54.87
2023-04-21T17:17:04.385Z,53.16
2023-04-21T17:19:31.613Z,52.83
2023-04-21T17:21:58.715Z,54.47
2023-04-21T17:24:26.141Z,54.85
2023-04-21T17:26:53.179Z,54.12
2023-04-21T17:29:20.642Z,54.39
2023-04-21T17:31:47.669Z,53.37
2023-04-21T17:34:14.636Z,52.92
2023-04-21T17:36:41.900Z,53.68
2023-04-21T17:39:08.887Z,54.03
2023-04-21T17:41:35.819Z,53.87
2023-04-21T17:44:02.929Z,53.97
2023-04-21T17:46:30.549Z,53.85
2023-04-21T17:48:57.553Z,53.17
2023-04-21T17:51:24.854Z,52.62
2023-04-21T17:53:51.881Z,53.22
2023-04-21T17:56:19.039Z,53.80
2023-04-21T17:58:47.006Z,54.16
2023-04-21T18:01:14.052Z,54.11
2023-04-21T18:03:44.092Z,54.14
2023-04-21T18:06:11.801Z,54.29
2023-04-21T18:08:38.853Z,54.13
2023-04-21T18:11:06.384Z,54.22
2023-04-21T18:13:33.463Z,54.13
2023-04-21T18:16:00.712Z,54.84
2023-04-21T18:18:28.961Z,55.79
2023-04-21T18:20:56.027Z,55.28
2023-04-21T18:23:22.952Z,55.03
2023-04-21T18:25:50.024Z,55.82
2023-04-21T18:28:17.271Z,55.09
2023-04-21T18:30:44.321Z,55.86
2023-04-21T18:33:11.867Z,54.93
2023-04-21T18:35:39.145Z,56.00
2023-04-21T18:38:08.391Z,56.56
2023-04-21T18:40:37.589Z,55.64
2023-04-21T18:43:05.498Z,56.19
2023-04-21T18:45:33.093Z,55.78
2023-04-21T18:48:00.129Z,55.15
2023-04-21T18:50:30.296Z,55.41
2023-04-21T18:52:58.240Z,56.59
2023-04-21T18:55:25.463Z,57.23
2023-04-21T18:57:52.748Z,57.50
2023-04-21T19:00:19.919Z,57.76
2023-04-21T19:02:49.060Z,57.97
2023-04-21T19:05:16.541Z,57.24
2023-04-21T19:07:43.677Z,57.48
2023-04-21T19:10:11.102Z,56.39
2023-04-21T19:12:38.665Z,55.97
2023-04-21T19:15:06.310Z,57.42
2023-04-21T19:17:33.281Z,57.12
2023-04-21T19:20:00.280Z,57.96
2023-04-21T19:22:36.047Z,58.24
2023-04-21T19:25:03.779Z,58.30
2023-04-21T19:27:31.108Z,58.48
2023-04-21T19:29:58.981Z,57.96
2023-04-21T19:32:26.377Z,57.69
2023-04-21T19:34:53.560Z,57.03
2023-04-21T19:37:21.165Z,56.61
2023-04-21T19:39:48.144Z,56.98
2023-04-21T19:42:15.159Z,56.32
2023-04-21T19:44:42.201Z,55.48
2023-04-21T19:47:09.138Z,56.39
2023-04-21T19:49:36.241Z,56.09
2023-04-21T19:52:03.279Z,57.13
2023-04-21T19:54:32.386Z,57.41
2023-04-21T19:56:59.464Z,58.46
2023-04-21T19:59:27.271Z,59.26
2023-04-21T20:01:54.505Z,59.60
2023-04-21T20:04:21.832Z,59.19
2023-04-21T20:06:49.029Z,59.08
2023-04-21T20:09:16.191Z,58.88
2023-04-21T20:11:43.376Z,58.88
2023-04-21T20:14:11.238Z,59.41
2023-04-21T20:16:39.714Z,59.20
2023-04-21T20:19:07.184Z,59.30
2023-04-21T20:21:34.208Z,59.51
2023-04-21T20:24:02.519Z,59.87
2023-04-21T20:26:29.687Z,60.00
2023-04-21T20:28:56.867Z,60.32
2023-04-21T20:31:25.728Z,60.50
2023-04-21T20:33:52.840Z,61.31
2023-04-21T20:36:19.920Z,60.63
2023-04-21T20:38:49.659Z,61.23
2023-04-21T20:41:16.683Z,61.44
2023-04-21T20:43:44.105Z,60.92
2023-04-21T20:46:11.799Z,61.11
2023-04-21T20:48:38.900Z,61.19
2023-04-21T20:51:06.213Z,61.06
2023-04-21T20:53:33.441Z,61.19
2023-04-21T20:56:00.483Z,60.80
2023-04-21T20:58:27.408Z,61.09
2023-04-21T21:00:54.419Z,61.35
2023-04-21T21:03:22.327Z,61.64
2023-04-21T21:05:49.748Z,61.78
2023-04-21T21:08:17.126Z,61.23
2023-04-21T21:10:44.136Z,61.85
2023-04-21T21:13:11.344Z,61.76
2023-04-21T21:15:38.409Z,62.12
2023-04-21T21:18:05.587Z,61.98
2023-04-21T21:20:32.551Z,63.38
2023-04-21T21:22:59.561Z,64.17
2023-04-21T21:25:26.982Z,64.21
2023-04-21T21:27:54.080Z,63.32
2023-04-21T21:30:21.421Z,63.18
2023-04-21T21:32:49.565Z,63.57
2023-04-21T21:35:20.006Z,63.58
2023-04-21T21:37:47.264Z,64.12
2023-04-21T21:40:14.437Z,63.98
2023-04-21T21:42:41.999Z,63.79
2023-04-21T21:45:11.205Z,63.86
2023-04-21T21:47:42.949Z,63.99
2023-04-21T21:50:12.710Z,64.21
2023-04-21T21:52:39.787Z,64.31
2023-04-21T21:55:07.374Z,64.87
2023-04-21T21:57:34.790Z,65.30
2023-04-21T22:00:02.288Z,65.63
2023-04-21T22:02:32.127Z,67.23
2023-04-21T22:04:59.781Z,66.80
2023-04-21T22:07:26.975Z,66.21
2023-04-21T22:12:46.033Z,66.42
2023-04-21T22:15:13.302Z,67.40
2023-04-21T22:17:40.916Z,67.68
2023-04-21T22:20:08.776Z,67.30
2023-04-21T22:22:36.374Z,66.04
2023-04-21T22:25:06.228Z,65.79
2023-04-21T22:27:33.998Z,65.78
2023-04-21T22:30:02.642Z,65.64
2023-04-21T22:32:32.314Z,65.63
2023-04-21T22:34:59.991Z,65.97
2023-04-21T22:37:27.645Z,66.00
2023-04-21T22:39:57.860Z,65.96
2023-04-21T22:42:27.382Z,65.27
2023-04-21T22:44:54.526Z,67.37
2023-04-21T22:47:21.798Z,67.06
2023-04-21T22:49:56.141Z,66.42
2023-04-21T22:52:23.201Z,66.02
2023-04-21T22:54:50.197Z,67.94
2023-04-21T22:57:17.277Z,67.82
2023-04-21T22:59:44.404Z,68.14
2023-04-21T23:02:11.700Z,67.76
2023-04-21T23:04:38.748Z,67.80
2023-04-21T23:07:05.765Z,67.04
2023-04-21T23:09:32.801Z,67.21
2023-04-21T23:11:59.905Z,68.75
2023-04-21T23:14:26.960Z,69.12
2023-04-21T23:16:54.010Z,66.64
2023-04-21T23:19:21.047Z,66.24
2023-04-21T23:21:48.263Z,66.11
2023-04-21T23:24:15.270Z,65.99
2023-04-21T23:26:42.283Z,66.64
2023-04-21T23:29:09.263Z,66.94
2023-04-21T23:31:36.359Z,67.60
2023-04-21T23:34:03.269Z,68.35
2023-04-21T23:36:30.215Z,68.27
2023-04-21T23:38:57.176Z,68.43
2023-04-21T23:41:24.229Z,68.27
2023-04-21T23:43:51.322Z,68.60
2023-04-21T23:46:18.383Z,68.61
2023-04-21T23:48:45.539Z,70.29
2023-04-21T23:51:12.748Z,70.65
2023-04-21T23:53:39.757Z,70.59
2023-04-21T23:56:07.046Z,68.92
2023-04-21T23:58:34.019Z,68.01
